sensor_id;sensor_type;location;lat;lon;timestamp;temperature;humidity
23329;DHT22;11836;51.050;3.716;2023-04-16T00:01:40;16.90;99.60
23329;DHT22;11836;51.050;3.716;2023-04-16T00:04:06;16.90;99.70
23329;DHT22;11836;51.050;3.716;2023-04-16T00:06:32;16.90;99.70
23329;DHT22;11836;51.050;3.716;2023-04-16T00:08:57;16.90;99.60
23329;DHT22;11836;51.050;3.716;2023-04-16T00:11:26;16.90;99.60
23329;DHT22;11836;51.050;3.716;2023-04-16T00:13:51;16.80;99.70
23329;DHT22;11836;51.050;3.716;2023-04-16T00:16:17;16.80;99.70
23329;DHT22;11836;51.050;3.716;2023-04-16T00:18:43;16.80;99.70
23329;DHT22;11836;51.050;3.716;2023-04-16T00:21:08;16.90;99.70
23329;DHT22;11836;51.050;3.716;2023-04-16T00:23:34;16.90;99.60
23329;DHT22;11836;51.050;3.716;2023-04-16T00:26:00;16.90;99.70
23329;DHT22;11836;51.050;3.716;2023-04-16T00:28:26;16.80;99.70
23329;DHT22;11836;51.050;3.716;2023-04-16T00:30:52;16.90;99.70
23329;DHT22;11836;51.050;3.716;2023-04-16T00:33:18;16.90;99.60
23329;DHT22;11836;51.050;3.716;2023-04-16T00:35:47;16.80;99.50
23329;DHT22;11836;51.050;3.716;2023-04-16T00:38:16;16.80;99.60
23329;DHT22;11836;51.050;3.716;2023-04-16T00:40:41;16.80;99.70
23329;DHT22;11836;51.050;3.716;2023-04-16T00:43:07;16.80;99.80
23329;DHT22;11836;51.050;3.716;2023-04-16T00:45:33;16.80;99.70
23329;DHT22;11836;51.050;3.716;2023-04-16T00:47:59;16.80;99.80
23329;DHT22;11836;51.050;3.716;2023-04-16T00:50:25;16.80;99.70
23329;DHT22;11836;51.050;3.716;2023-04-16T00:52:51;16.70;99.50
23329;DHT22;11836;51.050;3.716;2023-04-16T00:55:17;16.70;99.60
23329;DHT22;11836;51.050;3.716;2023-04-16T00:57:44;16.70;99.60
23329;DHT22;11836;51.050;3.716;2023-04-16T01:00:11;16.80;99.70
23329;DHT22;11836;51.050;3.716;2023-04-16T01:02:37;16.80;99.50
23329;DHT22;11836;51.050;3.716;2023-04-16T01:05:04;16.70;99.40
23329;DHT22;11836;51.050;3.716;2023-04-16T01:07:30;16.70;99.30
23329;DHT22;11836;51.050;3.716;2023-04-16T01:09:55;16.70;99.10
23329;DHT22;11836;51.050;3.716;2023-04-16T01:12:21;16.70;99.20
23329;DHT22;11836;51.050;3.716;2023-04-16T01:14:47;16.70;99.60
23329;DHT22;11836;51.050;3.716;2023-04-16T01:17:13;16.70;99.20
23329;DHT22;11836;51.050;3.716;2023-04-16T01:19:38;16.70;99.20
23329;DHT22;11836;51.050;3.716;2023-04-16T01:22:05;16.60;99.20
23329;DHT22;11836;51.050;3.716;2023-04-16T01:24:30;16.60;99.30
23329;DHT22;11836;51.050;3.716;2023-04-16T01:26:57;16.60;99.30
23329;DHT22;11836;51.050;3.716;2023-04-16T01:29:24;16.60;99.30
23329;DHT22;11836;51.050;3.716;2023-04-16T01:31:49;16.60;99.30
23329;DHT22;11836;51.050;3.716;2023-04-16T01:34:15;16.60;99.30
23329;DHT22;11836;51.050;3.716;2023-04-16T01:36:41;16.50;99.20
23329;DHT22;11836;51.050;3.716;2023-04-16T01:39:06;16.60;99.30
23329;DHT22;11836;51.050;3.716;2023-04-16T01:41:36;16.60;99.10
23329;DHT22;11836;51.050;3.716;2023-04-16T01:44:01;16.50;99.20
23329;DHT22;11836;51.050;3.716;2023-04-16T01:46:28;16.50;99.20
23329;DHT22;11836;51.050;3.716;2023-04-16T01:48:56;16.50;99.20
23329;DHT22;11836;51.050;3.716;2023-04-16T01:51:21;16.50;99.20
23329;DHT22;11836;51.050;3.716;2023-04-16T01:53:48;16.50;99.40
23329;DHT22;11836;51.050;3.716;2023-04-16T01:56:14;16.50;99.60
23329;DHT22;11836;51.050;3.716;2023-04-16T01:58:41;16.50;99.50
23329;DHT22;11836;51.050;3.716;2023-04-16T02:01:11;16.50;99.50
23329;DHT22;11836;51.050;3.716;2023-04-16T02:03:37;16.50;99.40
23329;DHT22;11836;51.050;3.716;2023-04-16T02:06:03;16.40;99.40
23329;DHT22;11836;51.050;3.716;2023-04-16T02:08:41;16.50;99.40
23329;DHT22;11836;51.050;3.716;2023-04-16T02:11:10;16.50;99.20
23329;DHT22;11836;51.050;3.716;2023-04-16T02:13:36;16.50;99.30
23329;DHT22;11836;51.050;3.716;2023-04-16T02:16:01;16.40;99.20
23329;DHT22;11836;51.050;3.716;2023-04-16T02:18:27;16.40;99.20
23329;DHT22;11836;51.050;3.716;2023-04-16T02:20:53;16.40;99.20
23329;DHT22;11836;51.050;3.716;2023-04-16T02:23:18;16.40;99.10
23329;DHT22;11836;51.050;3.716;2023-04-16T02:25:46;16.40;99.40
23329;DHT22;11836;51.050;3.716;2023-04-16T02:28:13;16.40;99.50
23329;DHT22;11836;51.050;3.716;2023-04-16T02:30:39;16.40;99.40
23329;DHT22;11836;51.050;3.716;2023-04-16T02:33:07;16.40;99.50
23329;DHT22;11836;51.050;3.716;2023-04-16T02:35:37;16.40;99.50
23329;DHT22;11836;51.050;3.716;2023-04-16T02:38:03;16.40;99.40
23329;DHT22;11836;51.050;3.716;2023-04-16T02:40:29;16.40;99.50
23329;DHT22;11836;51.050;3.716;2023-04-16T02:42:55;16.40;99.50
23329;DHT22;11836;51.050;3.716;2023-04-16T02:45:21;16.30;99.40
23329;DHT22;11836;51.050;3.716;2023-04-16T02:47:48;16.30;99.50
23329;DHT22;11836;51.050;3.716;2023-04-16T02:50:13;16.40;99.40
23329;DHT22;11836;51.050;3.716;2023-04-16T02:52:39;16.40;99.30
23329;DHT22;11836;51.050;3.716;2023-04-16T02:55:06;16.30;99.50
23329;DHT22;11836;51.050;3.716;2023-04-16T02:57:32;16.30;99.40
23329;DHT22;11836;51.050;3.716;2023-04-16T02:59:58;16.30;99.50
23329;DHT22;11836;51.050;3.716;2023-04-16T03:02:23;16.30;99.50
23329;DHT22;11836;51.050;3.716;2023-04-16T03:04:49;16.30;99.50
23329;DHT22;11836;51.050;3.716;2023-04-16T03:07:15;16.30;99.60
23329;DHT22;11836;51.050;3.716;2023-04-16T03:09:42;16.30;99.50
23329;DHT22;11836;51.050;3.716;2023-04-16T03:12:08;16.30;99.40
23329;DHT22;11836;51.050;3.716;2023-04-16T03:14:34;16.30;99.20
23329;DHT22;11836;51.050;3.716;2023-04-16T03:16:59;16.30;98.70
23329;DHT22;11836;51.050;3.716;2023-04-16T03:19:25;16.20;99.00
23329;DHT22;11836;51.050;3.716;2023-04-16T03:21:51;16.20;98.80
23329;DHT22;11836;51.050;3.716;2023-04-16T03:24:17;16.20;98.80
23329;DHT22;11836;51.050;3.716;2023-04-16T03:26:43;16.20;99.00
23329;DHT22;11836;51.050;3.716;2023-04-16T03:29:08;16.20;99.20
23329;DHT22;11836;51.050;3.716;2023-04-16T03:31:34;16.20;99.10
23329;DHT22;11836;51.050;3.716;2023-04-16T03:33:59;16.20;99.40
23329;DHT22;11836;51.050;3.716;2023-04-16T03:36:25;16.20;99.60
23329;DHT22;11836;51.050;3.716;2023-04-16T03:38:51;16.20;99.20
23329;DHT22;11836;51.050;3.716;2023-04-16T03:41:17;16.20;99.20
23329;DHT22;11836;51.050;3.716;2023-04-16T03:43:43;16.10;99.10
23329;DHT22;11836;51.050;3.716;2023-04-16T03:46:08;16.10;99.20
23329;DHT22;11836;51.050;3.716;2023-04-16T03:48:34;16.10;99.50
23329;DHT22;11836;51.050;3.716;2023-04-16T03:51:01;16.10;99.20
23329;DHT22;11836;51.050;3.716;2023-04-16T03:53:26;16.10;99.30
23329;DHT22;11836;51.050;3.716;2023-04-16T03:55:52;16.10;99.40
23329;DHT22;11836;51.050;3.716;2023-04-16T03:58:18;16.10;99.60
23329;DHT22;11836;51.050;3.716;2023-04-16T04:00:44;16.10;99.60
23329;DHT22;11836;51.050;3.716;2023-04-16T04:03:10;16.10;99.60
23329;DHT22;11836;51.050;3.716;2023-04-16T04:05:40;16.10;99.70
23329;DHT22;11836;51.050;3.716;2023-04-16T04:08:07;16.10;99.90
23329;DHT22;11836;51.050;3.716;2023-04-16T04:10:33;16.10;99.50
23329;DHT22;11836;51.050;3.716;2023-04-16T04:13:01;16.00;99.30
23329;DHT22;11836;51.050;3.716;2023-04-16T04:15:27;16.10;99.20
23329;DHT22;11836;51.050;3.716;2023-04-16T04:17:52;16.00;99.30
23329;DHT22;11836;51.050;3.716;2023-04-16T04:20:18;16.00;99.50
23329;DHT22;11836;51.050;3.716;2023-04-16T04:22:43;16.10;99.50
23329;DHT22;11836;51.050;3.716;2023-04-16T04:25:09;16.00;99.30
23329;DHT22;11836;51.050;3.716;2023-04-16T04:27:35;16.00;99.50
23329;DHT22;11836;51.050;3.716;2023-04-16T04:30:04;16.00;99.50
23329;DHT22;11836;51.050;3.716;2023-04-16T04:32:30;16.00;99.50
23329;DHT22;11836;51.050;3.716;2023-04-16T04:34:56;15.90;99.50
23329;DHT22;11836;51.050;3.716;2023-04-16T04:37:21;16.00;99.50
23329;DHT22;11836;51.050;3.716;2023-04-16T04:39:47;16.00;99.60
23329;DHT22;11836;51.050;3.716;2023-04-16T04:42:13;16.00;99.60
23329;DHT22;11836;51.050;3.716;2023-04-16T04:44:39;16.00;99.50
23329;DHT22;11836;51.050;3.716;2023-04-16T04:47:05;16.00;99.60
23329;DHT22;11836;51.050;3.716;2023-04-16T04:49:31;16.00;99.60
23329;DHT22;11836;51.050;3.716;2023-04-16T04:51:56;16.00;99.60
23329;DHT22;11836;51.050;3.716;2023-04-16T04:54:22;16.30;99.70
23329;DHT22;11836;51.050;3.716;2023-04-16T04:56:48;16.00;99.70
23329;DHT22;11836;51.050;3.716;2023-04-16T04:59:13;16.00;99.40
23329;DHT22;11836;51.050;3.716;2023-04-16T05:01:39;16.00;99.30
23329;DHT22;11836;51.050;3.716;2023-04-16T05:04:05;16.00;99.40
23329;DHT22;11836;51.050;3.716;2023-04-16T05:06:30;16.00;99.50
23329;DHT22;11836;51.050;3.716;2023-04-16T05:08:56;16.00;99.60
23329;DHT22;11836;51.050;3.716;2023-04-16T05:11:22;16.00;99.60
23329;DHT22;11836;51.050;3.716;2023-04-16T05:13:47;16.00;99.50
23329;DHT22;11836;51.050;3.716;2023-04-16T05:16:13;16.00;99.50
23329;DHT22;11836;51.050;3.716;2023-04-16T05:18:38;16.00;99.30
23329;DHT22;11836;51.050;3.716;2023-04-16T05:21:04;16.00;99.20
23329;DHT22;11836;51.050;3.716;2023-04-16T05:23:30;15.90;99.30
23329;DHT22;11836;51.050;3.716;2023-04-16T05:25:55;15.90;99.20
23329;DHT22;11836;51.050;3.716;2023-04-16T05:28:21;15.90;98.90
23329;DHT22;11836;51.050;3.716;2023-04-16T05:30:47;15.90;99.10
23329;DHT22;11836;51.050;3.716;2023-04-16T05:33:12;15.90;99.00
23329;DHT22;11836;51.050;3.716;2023-04-16T05:35:38;15.90;99.00
23329;DHT22;11836;51.050;3.716;2023-04-16T05:38:03;15.90;99.00
23329;DHT22;11836;51.050;3.716;2023-04-16T05:40:30;15.90;99.20
23329;DHT22;11836;51.050;3.716;2023-04-16T05:42:55;15.90;99.30
23329;DHT22;11836;51.050;3.716;2023-04-16T05:45:21;15.90;99.20
23329;DHT22;11836;51.050;3.716;2023-04-16T05:47:46;15.90;99.20
23329;DHT22;11836;51.050;3.716;2023-04-16T05:50:12;15.80;99.20
23329;DHT22;11836;51.050;3.716;2023-04-16T05:52:38;15.80;99.50
23329;DHT22;11836;51.050;3.716;2023-04-16T05:55:04;15.80;99.50
23329;DHT22;11836;51.050;3.716;2023-04-16T05:57:30;15.80;99.50
23329;DHT22;11836;51.050;3.716;2023-04-16T05:59:55;15.80;99.40
23329;DHT22;11836;51.050;3.716;2023-04-16T06:02:21;15.80;99.50
23329;DHT22;11836;51.050;3.716;2023-04-16T06:04:47;15.90;99.60
23329;DHT22;11836;51.050;3.716;2023-04-16T06:07:14;15.90;99.30
23329;DHT22;11836;51.050;3.716;2023-04-16T06:09:39;15.90;99.00
23329;DHT22;11836;51.050;3.716;2023-04-16T06:12:05;15.90;98.80
23329;DHT22;11836;51.050;3.716;2023-04-16T06:14:31;15.80;98.80
23329;DHT22;11836;51.050;3.716;2023-04-16T06:16:56;15.80;98.60
23329;DHT22;11836;51.050;3.716;2023-04-16T06:19:22;15.80;98.90
23329;DHT22;11836;51.050;3.716;2023-04-16T06:21:48;15.80;99.20
23329;DHT22;11836;51.050;3.716;2023-04-16T06:24:13;15.80;99.50
23329;DHT22;11836;51.050;3.716;2023-04-16T06:26:40;15.80;99.60
23329;DHT22;11836;51.050;3.716;2023-04-16T06:29:06;15.80;99.20
23329;DHT22;11836;51.050;3.716;2023-04-16T06:31:36;15.80;98.90
23329;DHT22;11836;51.050;3.716;2023-04-16T06:34:02;15.70;98.70
23329;DHT22;11836;51.050;3.716;2023-04-16T06:36:28;15.70;98.40
23329;DHT22;11836;51.050;3.716;2023-04-16T06:38:53;15.70;98.10
23329;DHT22;11836;51.050;3.716;2023-04-16T06:41:19;15.70;98.30
23329;DHT22;11836;51.050;3.716;2023-04-16T06:43:47;15.70;98.30
23329;DHT22;11836;51.050;3.716;2023-04-16T06:46:12;15.60;98.50
23329;DHT22;11836;51.050;3.716;2023-04-16T06:48:38;15.80;98.80
23329;DHT22;11836;51.050;3.716;2023-04-16T06:51:03;15.70;98.80
23329;DHT22;11836;51.050;3.716;2023-04-16T06:53:29;15.80;98.90
23329;DHT22;11836;51.050;3.716;2023-04-16T06:55:55;15.80;99.20
23329;DHT22;11836;51.050;3.716;2023-04-16T06:58:21;15.90;98.80
23329;DHT22;11836;51.050;3.716;2023-04-16T07:00:46;16.00;98.60
23329;DHT22;11836;51.050;3.716;2023-04-16T07:03:12;15.90;98.80
23329;DHT22;11836;51.050;3.716;2023-04-16T07:05:38;16.00;99.00
23329;DHT22;11836;51.050;3.716;2023-04-16T07:08:04;16.00;99.00
23329;DHT22;11836;51.050;3.716;2023-04-16T07:10:30;16.10;99.10
23329;DHT22;11836;51.050;3.716;2023-04-16T07:12:55;16.10;99.20
23329;DHT22;11836;51.050;3.716;2023-04-16T07:15:21;16.20;99.40
23329;DHT22;11836;51.050;3.716;2023-04-16T07:17:47;16.20;99.80
23329;DHT22;11836;51.050;3.716;2023-04-16T07:20:12;16.30;99.50
23329;DHT22;11836;51.050;3.716;2023-04-16T07:22:38;16.30;99.40
23329;DHT22;11836;51.050;3.716;2023-04-16T07:25:04;16.40;99.60
23329;DHT22;11836;51.050;3.716;2023-04-16T07:27:30;16.50;99.70
23329;DHT22;11836;51.050;3.716;2023-04-16T07:29:55;16.50;99.70
23329;DHT22;11836;51.050;3.716;2023-04-16T07:32:21;16.70;99.70
23329;DHT22;11836;51.050;3.716;2023-04-16T07:34:47;16.80;99.50
23329;DHT22;11836;51.050;3.716;2023-04-16T07:37:12;16.80;99.30
23329;DHT22;11836;51.050;3.716;2023-04-16T07:39:38;16.90;99.20
23329;DHT22;11836;51.050;3.716;2023-04-16T07:42:04;17.00;99.10
23329;DHT22;11836;51.050;3.716;2023-04-16T07:44:31;17.10;99.00
23329;DHT22;11836;51.050;3.716;2023-04-16T07:46:56;17.10;98.90
23329;DHT22;11836;51.050;3.716;2023-04-16T07:49:22;17.20;98.70
23329;DHT22;11836;51.050;3.716;2023-04-16T07:51:47;17.30;98.40
23329;DHT22;11836;51.050;3.716;2023-04-16T07:54:13;17.40;98.20
23329;DHT22;11836;51.050;3.716;2023-04-16T07:56:39;17.40;98.10
23329;DHT22;11836;51.050;3.716;2023-04-16T07:59:04;17.50;97.90
23329;DHT22;11836;51.050;3.716;2023-04-16T08:01:30;17.60;98.00
23329;DHT22;11836;51.050;3.716;2023-04-16T08:03:56;17.60;98.10
23329;DHT22;11836;51.050;3.716;2023-04-16T08:06:23;17.60;98.10
23329;DHT22;11836;51.050;3.716;2023-04-16T08:08:49;17.60;97.90
23329;DHT22;11836;51.050;3.716;2023-04-16T08:11:15;17.60;98.00
23329;DHT22;11836;51.050;3.716;2023-04-16T08:13:40;17.60;97.70
23329;DHT22;11836;51.050;3.716;2023-04-16T08:16:06;17.60;97.60
23329;DHT22;11836;51.050;3.716;2023-04-16T08:18:32;17.50;97.70
23329;DHT22;11836;51.050;3.716;2023-04-16T08:20:57;17.60;97.80
23329;DHT22;11836;51.050;3.716;2023-04-16T08:23:23;17.50;97.70
23329;DHT22;11836;51.050;3.716;2023-04-16T08:25:49;17.40;97.70
23329;DHT22;11836;51.050;3.716;2023-04-16T08:28:14;17.40;97.60
23329;DHT22;11836;51.050;3.716;2023-04-16T08:30:40;17.50;97.60
23329;DHT22;11836;51.050;3.716;2023-04-16T08:33:06;17.50;97.70
23329;DHT22;11836;51.050;3.716;2023-04-16T08:35:31;17.50;97.60
23329;DHT22;11836;51.050;3.716;2023-04-16T08:37:57;17.50;97.60
23329;DHT22;11836;51.050;3.716;2023-04-16T08:40:25;17.50;97.50
23329;DHT22;11836;51.050;3.716;2023-04-16T08:42:54;17.50;97.50
23329;DHT22;11836;51.050;3.716;2023-04-16T08:45:21;17.60;97.40
23329;DHT22;11836;51.050;3.716;2023-04-16T08:47:49;17.60;97.30
23329;DHT22;11836;51.050;3.716;2023-04-16T08:50:16;17.60;97.20
23329;DHT22;11836;51.050;3.716;2023-04-16T08:52:58;17.60;97.20
23329;DHT22;11836;51.050;3.716;2023-04-16T08:55:47;17.60;97.30
23329;DHT22;11836;51.050;3.716;2023-04-16T08:58:14;17.60;97.20
23329;DHT22;11836;51.050;3.716;2023-04-16T09:00:41;17.60;97.20
23329;DHT22;11836;51.050;3.716;2023-04-16T09:03:08;17.60;97.40
23329;DHT22;11836;51.050;3.716;2023-04-16T09:05:34;17.60;97.80
23329;DHT22;11836;51.050;3.716;2023-04-16T09:08:00;17.60;97.30
23329;DHT22;11836;51.050;3.716;2023-04-16T09:10:27;17.60;97.10
23329;DHT22;11836;51.050;3.716;2023-04-16T09:12:56;17.60;97.10
23329;DHT22;11836;51.050;3.716;2023-04-16T09:15:23;17.70;97.20
23329;DHT22;11836;51.050;3.716;2023-04-16T09:17:50;17.70;97.20
23329;DHT22;11836;51.050;3.716;2023-04-16T09:20:16;17.60;97.10
23329;DHT22;11836;51.050;3.716;2023-04-16T09:22:42;17.60;97.00
23329;DHT22;11836;51.050;3.716;2023-04-16T09:25:10;17.70;97.00
23329;DHT22;11836;51.050;3.716;2023-04-16T09:27:38;17.70;96.90
23329;DHT22;11836;51.050;3.716;2023-04-16T09:30:23;17.70;97.00
23329;DHT22;11836;51.050;3.716;2023-04-16T09:32:51;17.70;97.10
23329;DHT22;11836;51.050;3.716;2023-04-16T09:35:20;17.70;97.20
23329;DHT22;11836;51.050;3.716;2023-04-16T09:38:04;17.70;97.20
23329;DHT22;11836;51.050;3.716;2023-04-16T09:40:30;17.70;97.00
23329;DHT22;11836;51.050;3.716;2023-04-16T09:42:56;17.70;97.00
23329;DHT22;11836;51.050;3.716;2023-04-16T09:45:22;17.70;97.00
23329;DHT22;11836;51.050;3.716;2023-04-16T09:47:48;17.70;97.00
23329;DHT22;11836;51.050;3.716;2023-04-16T09:50:16;17.70;97.10
23329;DHT22;11836;51.050;3.716;2023-04-16T09:52:43;17.70;97.10
23329;DHT22;11836;51.050;3.716;2023-04-16T09:55:10;17.70;97.00
23329;DHT22;11836;51.050;3.716;2023-04-16T09:57:37;17.70;96.90
23329;DHT22;11836;51.050;3.716;2023-04-16T10:00:04;17.70;96.80
23329;DHT22;11836;51.050;3.716;2023-04-16T10:02:30;17.70;96.70
23329;DHT22;11836;51.050;3.716;2023-04-16T10:04:57;17.70;96.80
23329;DHT22;11836;51.050;3.716;2023-04-16T10:07:29;17.70;96.70
23329;DHT22;11836;51.050;3.716;2023-04-16T10:09:57;17.80;96.70
23329;DHT22;11836;51.050;3.716;2023-04-16T10:12:23;17.70;96.70
23329;DHT22;11836;51.050;3.716;2023-04-16T10:14:49;17.70;96.70
23329;DHT22;11836;51.050;3.716;2023-04-16T10:17:15;17.70;96.90
23329;DHT22;11836;51.050;3.716;2023-04-16T10:19:41;17.70;96.80
23329;DHT22;11836;51.050;3.716;2023-04-16T10:22:06;17.70;96.90
23329;DHT22;11836;51.050;3.716;2023-04-16T10:24:33;17.70;96.90
23329;DHT22;11836;51.050;3.716;2023-04-16T10:26:59;17.70;96.80
23329;DHT22;11836;51.050;3.716;2023-04-16T10:29:28;17.70;96.70
23329;DHT22;11836;51.050;3.716;2023-04-16T10:31:55;17.70;96.80
23329;DHT22;11836;51.050;3.716;2023-04-16T10:34:22;17.70;96.80
23329;DHT22;11836;51.050;3.716;2023-04-16T10:36:49;17.70;96.70
23329;DHT22;11836;51.050;3.716;2023-04-16T10:39:20;17.70;96.80
23329;DHT22;11836;51.050;3.716;2023-04-16T10:41:46;17.70;96.80
23329;DHT22;11836;51.050;3.716;2023-04-16T10:44:12;17.70;96.70
23329;DHT22;11836;51.050;3.716;2023-04-16T10:49:17;17.70;96.90
23329;DHT22;11836;51.050;3.716;2023-04-16T10:51:53;17.70;96.80
23329;DHT22;11836;51.050;3.716;2023-04-16T10:54:22;17.70;96.80
23329;DHT22;11836;51.050;3.716;2023-04-16T10:56:49;17.70;97.10
23329;DHT22;11836;51.050;3.716;2023-04-16T10:59:20;17.70;97.10
23329;DHT22;11836;51.050;3.716;2023-04-16T11:01:51;17.70;97.10
23329;DHT22;11836;51.050;3.716;2023-04-16T11:04:28;17.70;97.00
23329;DHT22;11836;51.050;3.716;2023-04-16T11:12:14;17.70;97.00
23329;DHT22;11836;51.050;3.716;2023-04-16T11:14:41;17.70;97.00
23329;DHT22;11836;51.050;3.716;2023-04-16T11:17:07;17.70;97.00
23329;DHT22;11836;51.050;3.716;2023-04-16T11:19:35;17.70;97.00
23329;DHT22;11836;51.050;3.716;2023-04-16T11:22:01;17.70;97.00
23329;DHT22;11836;51.050;3.716;2023-04-16T11:24:31;17.70;97.00
23329;DHT22;11836;51.050;3.716;2023-04-16T11:26:57;17.70;96.80
23329;DHT22;11836;51.050;3.716;2023-04-16T11:29:22;17.70;96.90
23329;DHT22;11836;51.050;3.716;2023-04-16T11:31:52;17.70;97.00
23329;DHT22;11836;51.050;3.716;2023-04-16T11:34:18;17.70;97.00
23329;DHT22;11836;51.050;3.716;2023-04-16T11:36:51;17.70;97.00
23329;DHT22;11836;51.050;3.716;2023-04-16T11:39:20;17.60;97.10
23329;DHT22;11836;51.050;3.716;2023-04-16T11:41:50;17.70;97.10
23329;DHT22;11836;51.050;3.716;2023-04-16T11:44:21;17.60;97.00
23329;DHT22;11836;51.050;3.716;2023-04-16T11:46:49;17.60;97.00
23329;DHT22;11836;51.050;3.716;2023-04-16T11:49:15;17.60;97.10
23329;DHT22;11836;51.050;3.716;2023-04-16T11:51:45;17.60;97.20
23329;DHT22;11836;51.050;3.716;2023-04-16T11:54:22;17.60;97.10
23329;DHT22;11836;51.050;3.716;2023-04-16T11:56:49;17.60;97.10
23329;DHT22;11836;51.050;3.716;2023-04-16T11:59:17;17.50;97.10
23329;DHT22;11836;51.050;3.716;2023-04-16T12:01:48;17.60;97.10
23329;DHT22;11836;51.050;3.716;2023-04-16T12:04:16;17.60;97.00
23329;DHT22;11836;51.050;3.716;2023-04-16T12:07:11;17.60;96.90
23329;DHT22;11836;51.050;3.716;2023-04-16T12:09:38;17.60;97.00
23329;DHT22;11836;51.050;3.716;2023-04-16T12:12:05;17.50;97.10
23329;DHT22;11836;51.050;3.716;2023-04-16T12:14:31;17.60;97.10
23329;DHT22;11836;51.050;3.716;2023-04-16T12:17:24;17.60;97.00
23329;DHT22;11836;51.050;3.716;2023-04-16T12:20:01;17.60;97.10
23329;DHT22;11836;51.050;3.716;2023-04-16T12:22:32;17.60;97.30
23329;DHT22;11836;51.050;3.716;2023-04-16T12:25:15;17.60;97.30
23329;DHT22;11836;51.050;3.716;2023-04-16T12:27:48;17.60;97.20
23329;DHT22;11836;51.050;3.716;2023-04-16T12:30:16;17.60;97.30
23329;DHT22;11836;51.050;3.716;2023-04-16T12:32:44;17.60;97.30
23329;DHT22;11836;51.050;3.716;2023-04-16T12:35:11;17.60;97.30
23329;DHT22;11836;51.050;3.716;2023-04-16T12:37:37;17.60;97.40
23329;DHT22;11836;51.050;3.716;2023-04-16T12:40:03;17.70;97.30
23329;DHT22;11836;51.050;3.716;2023-04-16T12:42:30;17.70;97.30
23329;DHT22;11836;51.050;3.716;2023-04-16T12:45:01;17.80;97.40
23329;DHT22;11836;51.050;3.716;2023-04-16T12:47:28;17.70;97.50
23329;DHT22;11836;51.050;3.716;2023-04-16T12:49:55;17.70;97.50
23329;DHT22;11836;51.050;3.716;2023-04-16T12:52:21;17.80;97.50
23329;DHT22;11836;51.050;3.716;2023-04-16T12:54:47;17.80;97.60
23329;DHT22;11836;51.050;3.716;2023-04-16T12:57:12;17.80;97.40
23329;DHT22;11836;51.050;3.716;2023-04-16T12:59:39;17.90;97.30
23329;DHT22;11836;51.050;3.716;2023-04-16T13:02:05;17.90;97.30
23329;DHT22;11836;51.050;3.716;2023-04-16T13:04:31;17.90;97.20
23329;DHT22;11836;51.050;3.716;2023-04-16T13:06:57;17.90;97.20
23329;DHT22;11836;51.050;3.716;2023-04-16T13:09:22;18.00;97.20
23329;DHT22;11836;51.050;3.716;2023-04-16T13:11:49;18.00;97.20
23329;DHT22;11836;51.050;3.716;2023-04-16T13:14:14;18.00;97.20
23329;DHT22;11836;51.050;3.716;2023-04-16T13:16:40;18.00;97.30
23329;DHT22;11836;51.050;3.716;2023-04-16T13:19:05;18.00;97.20
23329;DHT22;11836;51.050;3.716;2023-04-16T13:21:32;18.00;97.20
23329;DHT22;11836;51.050;3.716;2023-04-16T13:23:58;18.00;97.30
23329;DHT22;11836;51.050;3.716;2023-04-16T13:26:25;18.10;97.30
23329;DHT22;11836;51.050;3.716;2023-04-16T13:28:50;18.10;97.20
23329;DHT22;11836;51.050;3.716;2023-04-16T13:31:16;18.10;97.20
23329;DHT22;11836;51.050;3.716;2023-04-16T13:33:45;18.10;97.10
23329;DHT22;11836;51.050;3.716;2023-04-16T13:36:10;18.20;97.10
23329;DHT22;11836;51.050;3.716;2023-04-16T13:38:36;18.20;97.10
23329;DHT22;11836;51.050;3.716;2023-04-16T13:41:03;18.20;97.20
23329;DHT22;11836;51.050;3.716;2023-04-16T13:43:52;18.20;97.10
23329;DHT22;11836;51.050;3.716;2023-04-16T13:46:26;18.20;97.30
23329;DHT22;11836;51.050;3.716;2023-04-16T13:48:53;18.30;97.50
23329;DHT22;11836;51.050;3.716;2023-04-16T13:51:19;18.30;97.30
23329;DHT22;11836;51.050;3.716;2023-04-16T13:53:47;18.30;97.30
23329;DHT22;11836;51.050;3.716;2023-04-16T13:56:13;18.20;97.30
23329;DHT22;11836;51.050;3.716;2023-04-16T13:58:39;18.20;97.50
23329;DHT22;11836;51.050;3.716;2023-04-16T14:01:05;18.30;97.10
23329;DHT22;11836;51.050;3.716;2023-04-16T14:03:30;18.30;97.10
23329;DHT22;11836;51.050;3.716;2023-04-16T14:06:03;18.20;97.00
23329;DHT22;11836;51.050;3.716;2023-04-16T14:08:30;18.30;97.00
23329;DHT22;11836;51.050;3.716;2023-04-16T14:10:56;18.30;97.00
23329;DHT22;11836;51.050;3.716;2023-04-16T14:13:22;18.30;97.00
23329;DHT22;11836;51.050;3.716;2023-04-16T14:15:48;18.30;97.00
23329;DHT22;11836;51.050;3.716;2023-04-16T14:18:14;18.30;97.60
23329;DHT22;11836;51.050;3.716;2023-04-16T14:20:39;18.30;97.30
23329;DHT22;11836;51.050;3.716;2023-04-16T14:23:05;18.30;97.20
23329;DHT22;11836;51.050;3.716;2023-04-16T14:25:32;18.30;97.10
23329;DHT22;11836;51.050;3.716;2023-04-16T14:27:58;18.30;97.10
23329;DHT22;11836;51.050;3.716;2023-04-16T14:30:25;18.30;97.20
23329;DHT22;11836;51.050;3.716;2023-04-16T14:32:50;18.30;97.20
23329;DHT22;11836;51.050;3.716;2023-04-16T14:35:16;18.40;97.20
23329;DHT22;11836;51.050;3.716;2023-04-16T14:37:42;18.30;97.10
23329;DHT22;11836;51.050;3.716;2023-04-16T14:40:08;18.40;97.30
23329;DHT22;11836;51.050;3.716;2023-04-16T14:42:35;18.40;97.20
23329;DHT22;11836;51.050;3.716;2023-04-16T14:45:01;18.40;97.10
23329;DHT22;11836;51.050;3.716;2023-04-16T14:47:27;18.40;97.30
23329;DHT22;11836;51.050;3.716;2023-04-16T14:49:53;18.40;97.20
23329;DHT22;11836;51.050;3.716;2023-04-16T14:52:19;18.40;97.20
23329;DHT22;11836;51.050;3.716;2023-04-16T14:54:44;18.40;97.30
23329;DHT22;11836;51.050;3.716;2023-04-16T14:57:12;18.30;97.30
23329;DHT22;11836;51.050;3.716;2023-04-16T14:59:38;18.40;97.30
23329;DHT22;11836;51.050;3.716;2023-04-16T15:02:03;18.40;97.40
23329;DHT22;11836;51.050;3.716;2023-04-16T15:04:29;18.30;97.40
23329;DHT22;11836;51.050;3.716;2023-04-16T15:06:55;18.30;97.60
23329;DHT22;11836;51.050;3.716;2023-04-16T15:09:24;18.30;97.80
23329;DHT22;11836;51.050;3.716;2023-04-16T15:11:51;18.30;97.80
23329;DHT22;11836;51.050;3.716;2023-04-16T15:14:17;18.30;97.80
23329;DHT22;11836;51.050;3.716;2023-04-16T15:16:43;18.30;97.80
23329;DHT22;11836;51.050;3.716;2023-04-16T15:19:09;18.30;97.80
23329;DHT22;11836;51.050;3.716;2023-04-16T15:21:35;18.30;97.80
23329;DHT22;11836;51.050;3.716;2023-04-16T15:24:00;18.30;97.90
23329;DHT22;11836;51.050;3.716;2023-04-16T15:26:26;18.30;97.80
23329;DHT22;11836;51.050;3.716;2023-04-16T15:28:52;18.30;98.00
23329;DHT22;11836;51.050;3.716;2023-04-16T15:31:18;18.30;98.10
23329;DHT22;11836;51.050;3.716;2023-04-16T15:33:45;18.30;98.20
23329;DHT22;11836;51.050;3.716;2023-04-16T15:36:11;18.30;98.20